Terminal Aerodrome Forecast
Issued by NWS

Home | Current Version | Previous Version | Text Only | Print | Product List | Glossary On
Versions: 1 2 3 4 5 6 7 8 9 10 11 12 13 14 15 16 17 18 19 20 21 22 23 24
040
FTUS42 KFFC 212158 AAB
TAFRYY
TAF AMD
KRYY 212158Z 2122/2218 VRB04KT P6SM BKN016 OVC120
     FM220000 20005KT 6SM BR BKN012 OVC015
     FM220200 15005KT 3SM BR OVC005
     FM220800 16010KT 2SM TSRA OVC007CB
     FM221500 22008KT 4SM BR VCSH OVC005=

USA.gov is the U.S. government's official web portal to all federal, state and local government web resources and services.